Time;durP1;ratioP1;P1;durP2;ratioP2;P2;SDS_P1;SDS_P2;PMS_P1;PMS_P2;Temp;Humidity;BMP_temperature;BMP_pressure;BME280_temperature;BME280_humidity;BME280_pressure;Samples;Min_cycle;Max_cycle;Signal;HPM_P1;HPM_P2
2022/01/02 00:00:51;;;;;;;7.47;4.93;;;;;;;-2.73;72.73;98368.88;4924241;29;20050;-79
2022/01/02 00:03:35;;;;;;;12.25;5.43;;;;;;;-2.88;72.98;98362.50;4938386;29;20050;-80
2022/01/02 00:06:24;;;;;;;7.80;4.60;;;;;;;-2.83;73.37;98363.16;4937585;29;20581;-80
2022/01/02 00:09:08;;;;;;;8.98;4.70;;;;;;;-2.90;73.63;98353.03;4923622;29;20094;-79
2022/01/02 00:11:53;;;;;;;9.48;5.20;;;;;;;-2.90;73.82;98359.09;4923270;29;20483;-79
2022/01/02 00:14:41;;;;;;;9.40;5.35;;;;;;;-2.84;74.24;98361.47;4936564;29;20053;-80
2022/01/02 00:17:26;;;;;;;9.10;5.07;;;;;;;-2.82;73.98;98353.53;4924014;29;20066;-82
2022/01/02 00:20:13;;;;;;;10.52;5.25;;;;;;;-2.79;74.24;98354.28;4923496;29;20053;-78
2022/01/02 00:23:05;;;;;;;8.68;4.72;;;;;;;-2.90;74.49;98340.78;4936848;29;20102;-78
2022/01/02 00:25:54;;;;;;;10.30;4.78;;;;;;;-2.89;74.75;98337.28;4923859;29;20055;-80
2022/01/02 00:28:39;;;;;;;8.95;5.28;;;;;;;-2.85;74.65;98338.00;4937297;29;20114;-79
2022/01/02 00:31:24;;;;;;;8.50;4.78;;;;;;;-2.84;74.83;98335.31;4922931;29;20511;-80
2022/01/02 00:34:09;;;;;;;10.25;4.85;;;;;;;-2.88;75.20;98333.75;4936525;29;20055;-80
2022/01/02 00:36:54;;;;;;;9.10;4.47;;;;;;;-2.82;74.92;98327.38;4937693;29;20131;-79
2022/01/02 00:39:38;;;;;;;8.25;3.97;;;;;;;-2.78;74.81;98327.22;4936439;29;20415;-80
2022/01/02 00:42:33;;;;;;;7.22;4.93;;;;;;;-2.73;75.13;98327.03;4923255;29;20527;-79
2022/01/02 00:45:27;;;;;;;7.10;4.00;;;;;;;-2.80;75.22;98326.41;4922818;29;20578;-79
2022/01/02 00:48:28;;;;;;;9.43;5.05;;;;;;;-2.86;75.74;98331.91;4936126;29;20070;-80
2022/01/02 00:51:43;;;;;;;10.02;4.63;;;;;;;-2.76;75.55;98338.44;4923743;29;20161;-79
2022/01/02 00:54:29;;;;;;;11.50;5.80;;;;;;;-2.72;75.39;98324.31;4935710;29;20058;-79
2022/01/02 00:57:18;;;;;;;14.00;6.15;;;;;;;-2.73;75.10;98322.63;4930765;28;20091;-79
2022/01/02 01:00:02;;;;;;;10.60;5.18;;;;;;;-2.62;75.23;98324.78;4909916;29;20518;-79
2022/01/02 01:02:53;;;;;;;13.48;6.30;;;;;;;-2.71;75.07;98315.59;4949898;29;20066;-80
2022/01/02 01:05:38;;;;;;;11.80;5.45;;;;;;;-2.66;75.45;98306.69;4922753;29;20562;-82
2022/01/02 01:08:23;;;;;;;10.52;5.43;;;;;;;-2.65;75.08;98303.16;4935956;29;20098;-79
2022/01/02 01:11:09;;;;;;;9.07;5.30;;;;;;;-2.64;75.32;98303.06;4935520;29;20091;-80
2022/01/02 01:13:54;;;;;;;14.98;6.90;;;;;;;-2.60;74.72;98295.94;4936660;29;20102;-80
2022/01/02 01:16:39;;;;;;;11.18;5.90;;;;;;;-2.59;74.67;98287.19;4935966;29;20467;-81
2022/01/02 01:19:35;;;;;;;9.15;5.30;;;;;;;-2.54;74.81;98287.84;4936387;29;20176;-80
2022/01/02 01:22:20;;;;;;;13.90;7.53;;;;;;;-2.50;74.83;98282.38;4949031;29;20055;-81
2022/01/02 01:25:08;;;;;;;14.35;7.43;;;;;;;-2.48;74.28;98284.97;4909234;29;20508;-79
2022/01/02 01:27:53;;;;;;;15.57;7.15;;;;;;;-2.45;74.37;98284.78;4922559;29;20055;-80
2022/01/02 01:30:38;;;;;;;11.77;6.53;;;;;;;-2.40;74.45;98282.00;4935669;29;20685;-81
2022/01/02 01:33:22;;;;;;;13.35;7.10;;;;;;;-2.40;74.10;98282.84;4922005;29;20102;-85
2022/01/02 01:36:07;;;;;;;15.65;6.95;;;;;;;-2.30;74.51;98286.72;4922022;29;20070;-80
2022/01/02 01:38:52;;;;;;;16.38;7.95;;;;;;;-2.32;73.92;98275.50;4948967;29;20050;-79
2022/01/02 01:41:38;;;;;;;13.65;7.45;;;;;;;-2.24;74.06;98281.22;4935303;29;20503;-81
2022/01/02 01:44:38;;;;;;;14.15;7.55;;;;;;;-2.30;73.84;98278.88;4922913;29;20419;-80
2022/01/02 01:47:24;;;;;;;16.60;7.65;;;;;;;-2.22;73.88;98289.00;4935320;29;20128;-80
2022/01/02 01:50:08;;;;;;;16.13;8.82;;;;;;;-2.27;74.17;98273.50;4936252;29;20426;-78
2022/01/02 01:52:53;;;;;;;18.70;8.70;;;;;;;-2.28;74.09;98271.81;4948951;29;20122;-79
2022/01/02 01:55:40;;;;;;;17.75;9.07;;;;;;;-2.28;73.83;98269.19;4937851;28;20522;-78
2022/01/02 01:58:25;;;;;;;16.70;7.95;;;;;;;-2.28;73.93;98261.34;4960350;28;20068;-80
2022/01/02 02:01:09;;;;;;;24.90;10.75;;;;;;;-2.27;73.88;98260.41;4959925;28;20097;-79
2022/01/02 02:04:04;;;;;;;17.88;9.07;;;;;;;-2.25;73.90;98244.66;4960943;28;20054;-79
2022/01/02 02:06:49;;;;;;;17.33;9.27;;;;;;;-2.10;73.34;98248.34;4974620;28;20053;-80
2022/01/02 02:10:02;;;;;;;17.90;10.07;;;;;;;-2.16;73.29;98235.53;4959884;28;20061;-80
2022/01/02 02:12:43;;;;;;;14.90;8.35;;;;;;;-1.97;73.44;98259.94;4959858;28;20098;-80
2022/01/02 02:15:28;;;;;;;13.48;7.53;;;;;;;-2.00;73.19;98255.69;4932880;28;20070;-80
2022/01/02 02:18:12;;;;;;;11.65;7.30;;;;;;;-2.00;73.28;98250.44;4932972;28;20053;-79
2022/01/02 02:20:59;;;;;;;13.52;7.03;;;;;;;-2.08;73.92;98236.00;4994122;28;20069;-80
2022/01/02 02:23:47;;;;;;;15.43;7.60;;;;;;;-2.00;73.56;98223.41;4985584;28;20057;-80
2022/01/02 02:26:33;;;;;;;11.80;6.78;;;;;;;-1.92;73.28;98218.66;4960312;28;20101;-80
2022/01/02 02:29:17;;;;;;;12.77;7.05;;;;;;;-1.97;73.00;98216.25;4946727;28;20062;-80
2022/01/02 02:32:03;;;;;;;11.25;5.95;;;;;;;-1.98;73.42;98205.88;4973442;28;20405;-80
2022/01/02 02:34:47;;;;;;;14.00;7.93;;;;;;;-2.07;73.39;98207.16;4945844;28;20053;-80
2022/01/02 02:37:31;;;;;;;11.20;6.53;;;;;;;-2.06;73.71;98208.00;4973808;28;20101;-78
2022/01/02 02:40:19;;;;;;;14.38;6.88;;;;;;;-2.10;73.83;98195.97;4974022;28;20149;-80
2022/01/02 02:43:14;;;;;;;14.80;7.93;;;;;;;-1.98;73.75;98195.41;4946366;28;20058;-82
2022/01/02 02:49:05;;;;;;;19.15;8.90;;;;;;;-1.97;73.73;98204.94;4973245;28;20511;-80
2022/01/02 02:51:58;;;;;;;15.38;7.93;;;;;;;-1.96;73.29;98198.78;4946852;28;20098;-80
2022/01/02 02:54:48;;;;;;;19.05;9.38;;;;;;;-1.89;73.09;98184.47;4946208;28;20077;-82
2022/01/02 02:57:34;;;;;;;17.58;9.52;;;;;;;-1.95;72.87;98174.31;4946153;28;20541;-82
2022/01/02 03:00:19;;;;;;;14.55;8.05;;;;;;;-1.85;72.76;98172.91;4973960;28;20086;-78
2022/01/02 03:03:03;;;;;;;12.90;7.30;;;;;;;-1.85;72.69;98170.28;4974035;28;20073;-77
2022/01/02 03:05:48;;;;;;;12.10;7.00;;;;;;;-1.95;72.69;98169.06;4959426;28;20057;-79
2022/01/02 03:08:33;;;;;;;10.32;6.47;;;;;;;-1.94;72.83;98162.91;4959179;28;20053;-79
2022/01/02 03:11:20;;;;;;;9.63;4.82;;;;;;;-1.97;72.73;98156.03;4972821;28;20179;-81
2022/01/02 03:14:06;;;;;;;8.98;5.82;;;;;;;-2.00;73.03;98171.03;4960066;28;20137;-81
2022/01/02 03:16:50;;;;;;;12.77;6.72;;;;;;;-1.93;73.10;98167.19;4962907;28;20462;-80
2022/01/02 03:19:35;;;;;;;12.25;6.15;;;;;;;-1.88;72.86;98170.47;4962797;28;20089;-79
2022/01/02 03:22:20;;;;;;;9.15;5.72;;;;;;;-1.89;72.98;98176.59;4949168;28;20057;-85
2022/01/02 03:25:05;;;;;;;7.63;4.32;;;;;;;-1.89;73.07;98179.22;4949407;28;20116;-80
2022/01/02 03:27:49;;;;;;;9.55;5.53;;;;;;;-1.90;72.86;98182.78;4962737;28;20061;-80
2022/01/02 03:30:34;;;;;;;9.80;5.97;;;;;;;-1.88;73.28;98169.59;4948868;28;20069;-80
2022/01/02 03:33:19;;;;;;;10.93;6.68;;;;;;;-1.87;72.69;98187.03;4948974;28;20049;-83
2022/01/02 03:36:05;;;;;;;10.20;6.07;;;;;;;-1.88;72.87;98185.31;4962598;28;20066;-79
2022/01/02 03:38:51;;;;;;;9.43;5.32;;;;;;;-1.97;73.39;98186.59;4949433;28;20097;-82
2022/01/02 03:41:37;;;;;;;8.15;5.50;;;;;;;-2.01;73.12;98179.81;4948653;28;20062;-79
2022/01/02 03:44:22;;;;;;;13.20;6.60;;;;;;;-1.97;73.35;98155.19;4949103;28;20057;-77
2022/01/02 03:47:07;;;;;;;12.75;6.97;;;;;;;-1.95;73.15;98163.81;4948582;28;20081;-80
2022/01/02 03:49:51;;;;;;;11.48;6.70;;;;;;;-1.88;73.30;98165.22;4935415;28;20105;-78
2022/01/02 03:52:36;;;;;;;13.32;7.20;;;;;;;-1.79;73.26;98166.53;4976767;28;20457;-76
2022/01/02 03:55:22;;;;;;;11.25;6.00;;;;;;;-1.78;72.80;98166.47;4976097;28;20100;-80
2022/01/02 03:58:07;;;;;;;12.90;7.78;;;;;;;-1.74;72.84;98170.63;4949142;28;20478;-79
2022/01/02 04:00:51;;;;;;;11.10;7.15;;;;;;;-1.71;72.25;98167.00;4976712;28;20094;-79
2022/01/02 04:03:36;;;;;;;15.88;8.68;;;;;;;-1.77;72.47;98168.19;4976595;28;20113;-78
2022/01/02 04:06:22;;;;;;;10.45;6.32;;;;;;;-1.87;72.55;98164.31;4975384;28;20414;-81
2022/01/02 04:09:06;;;;;;;17.20;9.55;;;;;;;-1.86;72.77;98163.38;4961885;28;20057;-83
2022/01/02 04:11:51;;;;;;;14.95;8.13;;;;;;;-1.95;73.12;98158.59;4961856;28;20081;-85
2022/01/02 04:14:35;;;;;;;13.32;7.32;;;;;;;-1.81;73.28;98161.34;4962185;28;20082;-82
2022/01/02 04:17:23;;;;;;;11.02;6.85;;;;;;;-1.75;72.95;98157.59;4976455;28;20150;-80
2022/01/02 04:20:10;;;;;;;10.60;6.88;;;;;;;-1.64;72.80;98151.84;4948604;28;20049;-87
2022/01/02 04:22:54;;;;;;;12.27;5.65;;;;;;;-1.73;72.03;98148.75;4934994;28;20073;-82
2022/01/02 04:25:41;;;;;;;15.60;6.72;;;;;;;-1.91;72.61;98133.94;4960154;28;20513;-81
2022/01/02 04:28:27;;;;;;;11.07;6.80;;;;;;;-1.84;73.00;98139.72;4961342;28;20154;-82
2022/01/02 04:31:13;;;;;;;13.35;6.97;;;;;;;-1.70;72.66;98147.75;4975723;28;20421;-81
2022/01/02 04:34:00;;;;;;;10.00;5.63;;;;;;;-1.76;72.21;98143.66;4962719;28;20108;-87
2022/01/02 04:36:45;;;;;;;15.38;6.40;;;;;;;-1.81;72.26;98134.31;4962445;28;20073;-92
2022/01/02 04:39:32;;;;;;;10.57;5.97;;;;;;;-1.80;72.22;98131.66;4978312;28;20162;-85
2022/01/02 04:42:19;;;;;;;13.63;5.53;;;;;;;-1.74;72.43;98131.31;4961544;28;20045;-88
2022/01/02 04:45:05;;;;;;;10.57;5.60;;;;;;;-1.74;72.29;98131.31;4949847;28;20345;-89
2022/01/02 04:47:51;;;;;;;8.75;5.45;;;;;;;-1.77;72.68;98134.13;4924504;29;20066;-87
2022/01/02 04:50:38;;;;;;;18.75;6.18;;;;;;;-1.67;72.49;98123.16;4910012;29;20089;-86
2022/01/02 04:53:25;;;;;;;19.50;7.90;;;;;;;-1.65;72.59;98131.81;4908610;29;20090;-85
2022/01/02 04:56:10;;;;;;;10.00;5.57;;;;;;;-1.67;72.61;98133.66;4920956;29;20499;-86
2022/01/02 04:58:57;;;;;;;10.52;5.70;;;;;;;-1.63;72.42;98127.31;4909332;29;20058;-90
2022/01/02 05:01:42;;;;;;;10.80;5.47;;;;;;;-1.52;72.79;98122.41;4934986;29;20130;-81
2022/01/02 05:04:31;;;;;;;13.18;5.55;;;;;;;-1.60;72.37;98124.56;4919230;29;20154;-81
2022/01/02 05:07:18;;;;;;;16.00;6.55;;;;;;;-1.56;72.17;98128.72;4914842;29;20172;-80
2022/01/02 05:10:04;;;;;;;11.93;5.70;;;;;;;-1.41;72.14;98111.38;4920106;29;20063;-81
2022/01/02 05:12:49;;;;;;;16.30;6.72;;;;;;;-1.28;71.89;98118.53;4907673;29;20061;-80
2022/01/02 05:15:34;;;;;;;6.30;4.03;;;;;;;-1.24;71.29;98112.19;4920659;29;20075;-82
2022/01/02 05:18:19;;;;;;;12.20;6.05;;;;;;;-1.52;70.64;98099.66;4942435;28;20058;-80
2022/01/02 05:21:04;;;;;;;12.43;5.90;;;;;;;-1.49;70.79;98114.38;4940743;29;20105;-80
2022/01/02 05:24:14;;;;;;;20.85;5.45;;;;;;;-1.42;70.97;98107.06;4941311;29;20089;-79
2022/01/02 05:27:00;;;;;;;13.75;5.18;;;;;;;-1.38;70.68;98106.81;4939925;29;20153;-80
2022/01/02 05:29:45;;;;;;;13.15;5.05;;;;;;;-1.48;70.36;98102.97;4941395;29;20057;-81
2022/01/02 05:32:29;;;;;;;14.52;5.28;;;;;;;-1.57;70.50;98095.59;4941492;29;20054;-79
2022/01/02 05:35:14;;;;;;;13.30;5.38;;;;;;;-1.60;70.79;98090.50;4915281;29;20075;-79
2022/01/02 05:38:00;;;;;;;14.32;5.60;;;;;;;-1.55;71.07;98078.84;4927751;29;20097;-79
2022/01/02 05:40:44;;;;;;;22.40;5.32;;;;;;;-1.77;71.09;98073.88;4954448;29;20090;-81
2022/01/02 05:43:30;;;;;;;9.25;4.60;;;;;;;-1.63;70.53;98077.53;4940967;29;20478;-80
2022/01/02 05:46:15;;;;;;;17.77;5.13;;;;;;;-1.53;70.41;98074.38;4927652;29;20521;-79
2022/01/02 05:49:00;;;;;;;13.85;5.50;;;;;;;-1.50;70.33;98070.75;4954300;29;20101;-83
2022/01/02 05:51:45;;;;;;;9.70;5.25;;;;;;;-1.55;70.12;98051.78;4949931;29;20103;-81
2022/01/02 05:54:30;;;;;;;10.15;5.05;;;;;;;-1.61;70.41;98057.38;4956681;29;20144;-80
2022/01/02 05:57:15;;;;;;;9.82;5.60;;;;;;;-1.76;70.39;98054.59;4954609;29;20196;-80
2022/01/02 06:00:00;;;;;;;24.20;5.43;;;;;;;-1.82;70.60;98046.19;4941442;29;20106;-80
2022/01/02 06:02:49;;;;;;;14.40;5.13;;;;;;;-1.84;71.01;98045.41;4927953;29;20105;-83
2022/01/02 06:05:34;;;;;;;11.82;5.22;;;;;;;-1.75;70.93;98042.34;4926307;28;20106;-78
2022/01/02 06:08:19;;;;;;;8.60;5.13;;;;;;;-1.63;70.94;98048.72;4940531;29;20054;-80
2022/01/02 06:11:03;;;;;;;7.07;4.32;;;;;;;-1.55;70.46;98041.31;4965864;28;20061;-81
2022/01/02 06:13:48;;;;;;;8.35;4.55;;;;;;;-1.56;70.17;98044.88;4959712;28;20073;-80
2022/01/02 06:16:33;;;;;;;8.63;4.40;;;;;;;-1.53;70.42;98040.31;4933091;28;20105;-82
2022/01/02 06:19:18;;;;;;;11.95;4.68;;;;;;;-1.25;73.19;98052.81;4959919;28;20094;-80
2022/01/02 06:22:03;;;;;;;15.48;5.00;;;;;;;-0.98;73.16;98036.53;4946186;28;20585;-78
2022/01/02 06:24:49;;;;;;;13.60;5.53;;;;;;;-1.03;69.82;98035.94;4959753;28;20556;-78
2022/01/02 06:27:34;;;;;;;19.33;5.38;;;;;;;-1.00;69.41;98034.00;4959760;28;20104;-79
2022/01/02 06:30:19;;;;;;;14.27;4.88;;;;;;;-1.01;69.45;98016.56;4959535;28;20137;-80
2022/01/02 06:33:04;;;;;;;11.10;5.00;;;;;;;-0.83;68.88;98019.09;4946483;29;20074;-78
2022/01/02 06:35:49;;;;;;;30.33;7.32;;;;;;;-0.81;68.38;98018.09;4939541;29;20137;-83
2022/01/02 06:38:34;;;;;;;8.20;4.68;;;;;;;-0.61;68.86;98018.75;4913562;29;20411;-78
2022/01/02 06:41:19;;;;;;;20.13;4.63;;;;;;;-0.53;68.35;98012.19;4954579;29;20050;-78
2022/01/02 06:44:04;;;;;;;9.35;4.97;;;;;;;-0.39;67.88;98011.38;4953962;29;20081;-79
2022/01/02 06:46:49;;;;;;;15.35;5.82;;;;;;;-0.31;67.55;98011.78;4913761;29;20105;-82
2022/01/02 06:49:34;;;;;;;14.30;5.43;;;;;;;-0.39;66.89;98014.00;4941992;29;20423;-83
2022/01/02 06:52:19;;;;;;;12.50;5.47;;;;;;;-0.62;66.85;98006.59;4930337;29;20106;-80
2022/01/02 06:55:03;;;;;;;12.68;5.80;;;;;;;-0.69;67.17;97994.72;4930601;29;20101;-81
2022/01/02 06:57:49;;;;;;;8.75;4.90;;;;;;;-0.84;67.19;97986.78;4929977;29;20067;-81
2022/01/02 07:00:36;;;;;;;16.25;5.28;;;;;;;-0.75;66.99;97991.53;4917671;29;20058;-80
2022/01/02 07:03:24;;;;;;;10.32;4.95;;;;;;;-0.99;67.32;97982.38;4904431;29;20053;-80
2022/01/02 07:06:09;;;;;;;8.32;4.45;;;;;;;-0.98;67.81;97981.44;4943265;29;20057;-78
2022/01/02 07:08:55;;;;;;;11.02;4.53;;;;;;;-1.08;67.42;97982.91;4943287;29;20538;-84
2022/01/02 07:11:39;;;;;;;5.78;3.58;;;;;;;-0.88;67.44;97974.78;4930894;28;20585;-80
2022/01/02 07:14:26;;;;;;;6.30;3.85;;;;;;;-0.82;67.01;97968.34;4976026;28;20418;-80
2022/01/02 07:17:11;;;;;;;6.70;4.65;;;;;;;-0.77;66.86;97968.94;4976572;28;20101;-80
2022/01/02 07:19:55;;;;;;;8.82;4.70;;;;;;;-0.76;67.06;97968.81;4989380;28;20046;-79
2022/01/02 07:22:42;;;;;;;9.70;5.05;;;;;;;-0.71;66.07;97951.97;4976925;28;20460;-79
2022/01/02 07:25:27;;;;;;;9.48;4.38;;;;;;;-0.68;67.06;97959.69;4976324;28;20081;-82
2022/01/02 07:28:11;;;;;;;11.10;4.22;;;;;;;-0.67;66.41;97951.75;4977053;28;20137;-84
2022/01/02 07:30:56;;;;;;;9.20;4.40;;;;;;;-0.66;66.52;97956.03;4980677;28;20144;-84
2022/01/02 07:33:41;;;;;;;8.07;4.40;;;;;;;-0.66;66.52;97948.19;4962304;28;20524;-85
2022/01/02 07:36:25;;;;;;;7.20;4.25;;;;;;;-0.67;66.07;97949.13;4916209;29;20054;-86
2022/01/02 07:39:11;;;;;;;7.38;3.72;;;;;;;-0.65;66.39;97951.63;4943029;29;20138;-81
2022/01/02 07:41:56;;;;;;;7.80;4.45;;;;;;;-0.70;66.26;97945.81;4942965;29;20411;-78
2022/01/02 07:44:47;;;;;;;10.48;4.30;;;;;;;-0.77;66.82;97948.78;4942795;29;20128;-80
2022/01/02 07:47:31;;;;;;;12.43;4.65;;;;;;;-0.56;67.24;97928.34;4929714;29;20046;-83
2022/01/02 07:50:18;;;;;;;19.20;5.55;;;;;;;-0.60;66.38;97934.72;4929199;29;20053;-82
2022/01/02 07:53:04;;;;;;;23.83;4.70;;;;;;;-0.69;66.13;97937.00;4958586;29;20053;-84
2022/01/02 07:55:48;;;;;;;8.10;3.92;;;;;;;-0.87;66.47;97934.47;4957471;29;20066;-83
2022/01/02 07:58:34;;;;;;;7.85;4.57;;;;;;;-0.78;66.57;97931.34;4956953;29;20142;-81
2022/01/02 08:01:19;;;;;;;7.28;4.45;;;;;;;-0.79;66.60;97926.19;4942824;29;20062;-82
2022/01/02 08:04:06;;;;;;;5.72;3.85;;;;;;;-0.85;67.18;97903.78;4916039;29;20117;-82
2022/01/02 08:06:51;;;;;;;9.57;4.43;;;;;;;-0.67;67.50;97907.13;4943131;29;20505;-80
2022/01/02 08:09:35;;;;;;;6.57;4.60;;;;;;;-0.64;67.06;97895.59;4942591;29;20467;-81
2022/01/02 08:12:19;;;;;;;9.90;4.60;;;;;;;-0.62;67.05;97883.25;4902536;29;20053;-81
2022/01/02 08:15:04;;;;;;;9.00;4.57;;;;;;;-0.69;67.13;97892.41;4915583;29;20490;-86
2022/01/02 08:17:49;;;;;;;6.43;4.00;;;;;;;-0.87;67.31;97879.38;4942420;29;20057;-82
2022/01/02 08:20:33;;;;;;;6.53;4.50;;;;;;;-0.82;67.92;97874.75;4942230;29;20423;-83
2022/01/02 08:23:18;;;;;;;7.25;4.32;;;;;;;-0.79;67.54;97877.19;4942036;29;20570;-83
2022/01/02 08:26:03;;;;;;;8.00;4.70;;;;;;;-0.77;67.14;97867.44;4952296;28;20536;-86
2022/01/02 08:28:48;;;;;;;10.10;4.28;;;;;;;-0.76;67.06;97858.63;4929001;29;20054;-83
2022/01/02 08:31:32;;;;;;;7.95;4.65;;;;;;;-0.76;67.13;97863.88;4941745;29;20070;-84
2022/01/02 08:34:17;;;;;;;8.98;4.97;;;;;;;-0.89;67.65;97857.66;4941661;29;20179;-80
2022/01/02 08:37:01;;;;;;;9.05;4.22;;;;;;;-0.77;67.50;97849.06;4928843;29;20478;-85
2022/01/02 08:39:46;;;;;;;10.70;4.38;;;;;;;-0.85;67.22;97860.97;4956491;29;20098;-89
2022/01/02 08:42:30;;;;;;;10.90;4.85;;;;;;;-0.91;67.38;97853.44;4915107;29;20065;-85
2022/01/02 08:45:15;;;;;;;8.70;4.40;;;;;;;-0.83;68.09;97854.69;4946999;28;20054;-82
2022/01/02 08:48:00;;;;;;;10.82;4.60;;;;;;;-0.75;67.74;97855.09;4966409;28;20058;-83
2022/01/02 08:50:44;;;;;;;10.18;4.90;;;;;;;-0.80;68.13;97844.00;4915114;29;20093;-81
2022/01/02 08:53:31;;;;;;;9.48;5.22;;;;;;;-0.63;67.85;97855.31;4971301;28;20574;-82
2022/01/02 08:56:15;;;;;;;7.30;4.50;;;;;;;-0.46;67.86;97841.19;4960844;28;20429;-81
2022/01/02 08:58:59;;;;;;;10.15;4.72;;;;;;;-0.64;66.86;97829.97;4960844;28;20058;-82
2022/01/02 09:01:44;;;;;;;8.85;4.63;;;;;;;-0.73;67.13;97829.59;4961094;28;20905;-81
2022/01/02 09:04:29;;;;;;;18.20;3.97;;;;;;;-0.91;67.46;97828.03;4947608;29;20479;-81
2022/01/02 09:07:13;;;;;;;12.18;4.45;;;;;;;-1.03;68.29;97834.00;4942391;29;20046;-86
2022/01/02 09:09:58;;;;;;;8.73;4.90;;;;;;;-1.07;68.48;97835.09;4933957;28;20191;-82
2022/01/02 09:12:43;;;;;;;7.97;4.40;;;;;;;-1.02;68.77;97833.06;4975002;28;20489;-84
2022/01/02 09:15:27;;;;;;;9.00;4.03;;;;;;;-1.01;67.87;97816.41;4975437;28;20058;-80
2022/01/02 09:18:12;;;;;;;11.13;4.05;;;;;;;-1.04;68.16;97819.22;4960412;28;20454;-81
2022/01/02 09:20:57;;;;;;;7.97;4.43;;;;;;;-0.98;68.02;97808.34;4974939;28;20104;-82
2022/01/02 09:23:42;;;;;;;5.75;3.58;;;;;;;-1.11;67.75;97810.84;4947056;28;20064;-84
2022/01/02 09:26:27;;;;;;;12.95;5.05;;;;;;;-1.13;68.03;97789.13;4971762;28;20090;-81
2022/01/02 09:29:11;;;;;;;6.97;3.92;;;;;;;-1.08;67.46;97783.59;4976301;28;20131;-82
2022/01/02 09:31:56;;;;;;;14.23;4.50;;;;;;;-1.15;67.94;97793.59;4975552;28;20162;-82
2022/01/02 09:34:41;;;;;;;32.70;6.38;;;;;;;-1.04;69.39;97775.47;4975210;28;20070;-80
2022/01/02 09:37:25;;;;;;;7.13;3.83;;;;;;;-0.96;68.24;97766.31;4947512;28;20057;-86
2022/01/02 09:40:10;;;;;;;14.50;5.38;;;;;;;-0.94;68.26;97765.28;4933662;28;20064;-79
2022/01/02 09:42:57;;;;;;;9.98;5.15;;;;;;;-0.68;68.06;97771.59;4960739;28;20533;-84
2022/01/02 09:45:45;;;;;;;10.93;5.20;;;;;;;-0.54;67.39;97768.16;4960543;28;20046;-83
2022/01/02 09:48:29;;;;;;;8.10;5.10;;;;;;;-0.74;66.93;97757.06;4960399;28;20081;-86
2022/01/02 09:51:16;;;;;;;14.50;5.00;;;;;;;-0.71;66.98;97766.56;4978007;28;20101;-85
2022/01/02 09:54:00;;;;;;;10.70;5.07;;;;;;;-0.86;67.65;97767.47;4961527;28;20121;-90
2022/01/02 09:56:27;;;;;;;9.35;4.82;;;;;;;-0.93;67.67;97760.88;4974533;28;20110;-81
2022/01/02 09:58:53;;;;;;;8.35;4.63;;;;;;;-0.92;67.70;97752.06;4957163;28;20046;-82
2022/01/02 10:01:23;;;;;;;10.50;5.00;;;;;;;-0.87;67.90;97750.84;4909594;28;20498;-80
2022/01/02 10:03:53;;;;;;;10.60;5.25;;;;;;;-0.91;67.76;97749.34;4925191;28;20509;-82
2022/01/02 10:06:19;;;;;;;;;;;;;;;-1.27;68.38;97749.75;4957433;28;20050;-79
2022/01/02 10:08:46;;;;;;;9.13;4.43;;;;;;;-1.38;68.68;97750.34;4925591;28;20274;-81
2022/01/02 10:11:19;;;;;;;12.30;5.32;;;;;;;-1.45;68.92;97738.53;4956985;28;20051;-81
2022/01/02 10:14:01;;;;;;;10.00;5.63;;;;;;;-1.52;68.85;97742.44;4925798;28;20129;-80
2022/01/02 10:16:37;;;;;;;12.02;4.68;;;;;;;-1.60;69.01;97728.91;4956715;28;20058;-81
2022/01/02 10:19:32;;;;;;;16.48;6.07;;;;;;;-1.39;69.42;97727.72;4901097;29;20043;-82
2022/01/02 10:22:04;;;;;;;12.13;6.80;;;;;;;-1.48;69.13;97738.69;4887259;29;20051;-81
2022/01/02 10:24:31;;;;;;;15.02;7.20;;;;;;;-1.37;68.69;97730.22;4889209;29;20059;-81
2022/01/02 10:27:18;;;;;;;13.13;6.50;;;;;;;-1.45;69.13;97728.03;4937518;29;20058;-81
2022/01/02 10:29:54;;;;;;;13.02;6.70;;;;;;;-1.27;69.35;97740.09;4905860;29;20566;-81
2022/01/02 10:32:28;;;;;;;12.45;6.93;;;;;;;-1.19;68.45;97739.66;4937305;29;20036;-81
2022/01/02 10:35:13;;;;;;;14.02;6.38;;;;;;;-1.36;68.38;97747.63;4905817;29;20119;-79
2022/01/02 10:37:41;;;;;;;12.68;6.18;;;;;;;-1.58;68.12;97748.00;4923377;29;20056;-79
2022/01/02 10:40:29;;;;;;;13.48;6.53;;;;;;;-1.58;68.82;97745.38;4906130;29;20048;-81
2022/01/02 10:42:55;;;;;;;13.07;5.85;;;;;;;-1.65;69.10;97762.41;4921773;29;20168;-82
2022/01/02 10:45:34;;;;;;;9.57;4.90;;;;;;;-1.66;68.81;97745.81;4890071;29;20158;-80
2022/01/02 10:48:00;;;;;;;8.50;4.53;;;;;;;-1.84;69.14;97747.72;4906375;29;20053;-82
2022/01/02 10:50:25;;;;;;;10.75;4.85;;;;;;;-1.93;69.45;97763.06;4915285;28;20042;-80
2022/01/02 10:52:52;;;;;;;7.68;4.22;;;;;;;-1.91;69.90;97769.09;4944251;28;20047;-80
2022/01/02 10:55:19;;;;;;;11.18;5.55;;;;;;;-1.83;69.83;97764.25;4928490;28;20141;-82
2022/01/02 10:57:49;;;;;;;11.15;5.57;;;;;;;-1.76;69.84;97755.97;4928317;28;20051;-81
2022/01/02 11:00:22;;;;;;;11.82;5.82;;;;;;;-1.64;69.16;97764.09;4928115;28;20053;-79
2022/01/02 11:02:48;;;;;;;12.75;5.85;;;;;;;-1.61;69.21;97758.69;4928779;28;20046;-81
2022/01/02 11:05:16;;;;;;;13.10;6.22;;;;;;;-1.57;69.39;97761.03;4960209;28;20460;-80
2022/01/02 11:07:51;;;;;;;17.65;7.75;;;;;;;-1.60;69.37;97757.75;4928315;28;20074;-81
2022/01/02 11:10:19;;;;;;;32.83;12.48;;;;;;;-1.79;69.68;97756.16;4928634;28;20545;-80
2022/01/02 11:12:45;;;;;;;54.47;16.33;;;;;;;-1.94;70.72;97750.91;4960153;28;20039;-79
2022/01/02 11:15:22;;;;;;;36.10;14.40;;;;;;;-1.81;70.38;97758.00;4943928;28;20149;-79
2022/01/02 11:17:48;;;;;;;34.88;11.40;;;;;;;-1.96;70.12;97746.63;4944562;28;20545;-79
2022/01/02 11:20:19;;;;;;;23.45;10.57;;;;;;;-2.04;70.52;97756.63;4959894;28;20057;-80
2022/01/02 11:23:03;;;;;;;22.50;10.60;;;;;;;-2.21;71.05;97741.88;4927953;28;20047;-80
2022/01/02 11:25:50;;;;;;;19.02;9.07;;;;;;;-2.29;70.79;97757.13;4960189;28;20038;-79
2022/01/02 11:28:35;;;;;;;20.25;9.48;;;;;;;-2.28;70.74;97750.13;4960314;28;20043;-79
2022/01/02 11:31:03;;;;;;;15.43;7.88;;;;;;;-2.35;70.75;97747.00;4943453;28;20423;-80
2022/01/02 11:33:33;;;;;;;19.75;8.05;;;;;;;-2.44;70.74;97752.72;4927903;28;20046;-80
2022/01/02 11:36:01;;;;;;;17.77;6.97;;;;;;;-2.60;70.82;97751.81;4943084;28;20042;-80
2022/01/02 11:38:41;;;;;;;13.10;6.60;;;;;;;-2.60;70.89;97738.75;4944083;28;20046;-80
2022/01/02 11:41:07;;;;;;;17.83;8.50;;;;;;;-2.62;71.23;97748.47;4943973;28;20108;-79
2022/01/02 11:43:36;;;;;;;18.48;8.63;;;;;;;-2.76;71.53;97744.78;4944350;28;20042;-79
2022/01/02 11:46:18;;;;;;;17.42;9.13;;;;;;;-2.78;71.29;97749.25;4975195;28;20047;-80
2022/01/02 11:49:27;;;;;;;14.18;7.32;;;;;;;-2.85;71.27;97753.13;4938313;28;20093;-81
2022/01/02 11:51:56;;;;;;;18.25;8.02;;;;;;;-2.90;71.53;97743.78;4885786;29;20044;-84
2022/01/02 11:54:29;;;;;;;17.25;8.43;;;;;;;-2.86;71.18;97761.84;4966935;28;20506;-82
2022/01/02 11:57:02;;;;;;;16.20;8.50;;;;;;;-2.88;70.89;97758.50;4938658;29;20057;-82
2022/01/02 11:59:44;;;;;;;9.82;6.38;;;;;;;-2.77;70.78;97748.31;4893457;29;20051;-82
2022/01/02 12:02:12;;;;;;;20.05;7.90;;;;;;;-2.98;70.55;97741.56;4924190;29;20545;-80
2022/01/02 12:07:37;;;;;;;19.17;9.70;;;;;;;-3.00;70.35;97746.06;4957278;29;20413;-84
2022/01/02 12:10:27;;;;;;;16.90;8.40;;;;;;;-3.06;70.90;97754.19;4908233;29;20078;-87
2022/01/02 12:12:56;;;;;;;23.42;9.82;;;;;;;-3.13;70.52;97742.34;4956916;29;20419;-83
2022/01/02 12:15:43;;;;;;;16.08;8.15;;;;;;;-3.22;70.79;97756.75;4922628;29;20055;-81
2022/01/02 12:18:16;;;;;;;24.17;10.32;;;;;;;-3.23;70.91;97757.66;4942998;29;20154;-83
2022/01/02 12:20:56;;;;;;;21.63;9.48;;;;;;;-3.15;70.71;97763.34;4939433;29;20058;-82
2022/01/02 12:26:04;;;;;;;21.73;11.68;;;;;;;-3.19;70.17;97760.03;4922834;29;20046;-81
2022/01/02 12:28:39;;;;;;;21.38;10.80;;;;;;;-3.12;70.51;97775.41;4907514;29;20047;-83
2022/01/02 12:31:07;;;;;;;23.95;10.75;;;;;;;-3.08;70.54;97767.34;4922296;29;20479;-83
2022/01/02 12:33:35;;;;;;;18.27;9.15;;;;;;;-3.09;70.31;97760.41;4923095;29;20039;-82
2022/01/02 12:36:12;;;;;;;17.33;8.23;;;;;;;-3.15;70.16;97763.34;4907701;29;20051;-80
2022/01/02 12:38:52;;;;;;;13.88;6.95;;;;;;;-3.25;70.60;97754.28;4908049;29;20043;-81
2022/01/02 12:41:23;;;;;;;20.33;8.15;;;;;;;-3.22;69.98;97749.75;4924371;29;20454;-88
2022/01/02 12:43:56;;;;;;;14.60;7.32;;;;;;;-3.35;70.73;97766.94;4923952;29;20047;-92
2022/01/02 12:46:44;;;;;;;17.25;9.25;;;;;;;-3.38;70.71;97747.97;4941588;29;20051;-90
2022/01/02 12:49:17;;;;;;;15.32;7.45;;;;;;;-3.36;70.59;97744.34;4928098;29;20047;-89